sensor_id;sensor_type;location;lat;lon;timestamp;temperature;humidity
11399;DHT22;5755;48.116;11.608;2022-09-01T00:02:00;15.20;99.90
11399;DHT22;5755;48.116;11.608;2022-09-01T00:04:35;15.10;99.90
11399;DHT22;5755;48.116;11.608;2022-09-01T00:07:04;15.10;99.90
11399;DHT22;5755;48.116;11.608;2022-09-01T00:09:33;15.10;99.90
11399;DHT22;5755;48.116;11.608;2022-09-01T00:12:00;15.10;99.90
11399;DHT22;5755;48.116;11.608;2022-09-01T00:14:31;15.10;99.90
11399;DHT22;5755;48.116;11.608;2022-09-01T00:17:09;15.00;99.90
11399;DHT22;5755;48.116;11.608;2022-09-01T00:19:37;15.10;99.90
11399;DHT22;5755;48.116;11.608;2022-09-01T00:22:05;15.20;99.90
11399;DHT22;5755;48.116;11.608;2022-09-01T00:24:34;15.30;99.90
11399;DHT22;5755;48.116;11.608;2022-09-01T00:27:02;15.30;99.90
11399;DHT22;5755;48.116;11.608;2022-09-01T00:29:29;15.20;99.90
11399;DHT22;5755;48.116;11.608;2022-09-01T00:31:56;15.20;99.90
11399;DHT22;5755;48.116;11.608;2022-09-01T00:34:25;15.10;99.90
11399;DHT22;5755;48.116;11.608;2022-09-01T00:36:52;15.10;99.90
11399;DHT22;5755;48.116;11.608;2022-09-01T00:39:19;15.10;99.90
11399;DHT22;5755;48.116;11.608;2022-09-01T00:41:50;15.00;99.90
11399;DHT22;5755;48.116;11.608;2022-09-01T00:44:19;15.10;99.90
11399;DHT22;5755;48.116;11.608;2022-09-01T00:46:49;15.00;99.90
11399;DHT22;5755;48.116;11.608;2022-09-01T00:49:19;15.00;99.90
11399;DHT22;5755;48.116;11.608;2022-09-01T00:51:51;15.00;99.90
11399;DHT22;5755;48.116;11.608;2022-09-01T00:54:22;15.00;99.90
11399;DHT22;5755;48.116;11.608;2022-09-01T00:56:52;14.90;99.90
11399;DHT22;5755;48.116;11.608;2022-09-01T00:59:20;15.00;99.90
11399;DHT22;5755;48.116;11.608;2022-09-01T01:01:48;14.90;99.90
11399;DHT22;5755;48.116;11.608;2022-09-01T01:04:15;14.90;99.90
11399;DHT22;5755;48.116;11.608;2022-09-01T01:06:45;15.00;99.90
11399;DHT22;5755;48.116;11.608;2022-09-01T01:09:27;15.00;99.90
11399;DHT22;5755;48.116;11.608;2022-09-01T01:11:56;14.90;99.90
11399;DHT22;5755;48.116;11.608;2022-09-01T01:14:25;14.90;99.90
11399;DHT22;5755;48.116;11.608;2022-09-01T01:16:55;14.90;99.90
11399;DHT22;5755;48.116;11.608;2022-09-01T01:19:27;15.00;99.90
11399;DHT22;5755;48.116;11.608;2022-09-01T01:22:21;15.10;99.90
11399;DHT22;5755;48.116;11.608;2022-09-01T01:25:08;15.00;99.90
11399;DHT22;5755;48.116;11.608;2022-09-01T01:27:38;15.00;99.90
11399;DHT22;5755;48.116;11.608;2022-09-01T01:30:08;15.00;99.90
11399;DHT22;5755;48.116;11.608;2022-09-01T01:32:35;14.90;99.90
11399;DHT22;5755;48.116;11.608;2022-09-01T01:35:03;15.00;99.90
11399;DHT22;5755;48.116;11.608;2022-09-01T01:37:33;15.00;99.90
11399;DHT22;5755;48.116;11.608;2022-09-01T01:40:00;15.00;99.90
11399;DHT22;5755;48.116;11.608;2022-09-01T01:42:28;15.00;99.90
11399;DHT22;5755;48.116;11.608;2022-09-01T01:44:57;15.00;99.90
11399;DHT22;5755;48.116;11.608;2022-09-01T01:47:24;15.00;99.90
11399;DHT22;5755;48.116;11.608;2022-09-01T01:49:51;15.00;99.90
11399;DHT22;5755;48.116;11.608;2022-09-01T01:52:18;15.10;99.90
11399;DHT22;5755;48.116;11.608;2022-09-01T01:54:46;15.20;99.90
11399;DHT22;5755;48.116;11.608;2022-09-01T01:57:13;15.20;99.90
11399;DHT22;5755;48.116;11.608;2022-09-01T01:59:50;15.20;99.90
11399;DHT22;5755;48.116;11.608;2022-09-01T02:02:19;15.10;99.90
11399;DHT22;5755;48.116;11.608;2022-09-01T02:04:49;15.00;99.90
11399;DHT22;5755;48.116;11.608;2022-09-01T02:07:16;15.00;99.90
11399;DHT22;5755;48.116;11.608;2022-09-01T02:09:49;15.00;99.90
11399;DHT22;5755;48.116;11.608;2022-09-01T02:12:16;15.00;99.90
11399;DHT22;5755;48.116;11.608;2022-09-01T02:14:44;14.90;99.90
11399;DHT22;5755;48.116;11.608;2022-09-01T02:17:12;14.80;99.90
11399;DHT22;5755;48.116;11.608;2022-09-01T02:19:39;14.90;99.90
11399;DHT22;5755;48.116;11.608;2022-09-01T02:22:13;14.90;99.90
11399;DHT22;5755;48.116;11.608;2022-09-01T02:24:40;14.80;99.90
11399;DHT22;5755;48.116;11.608;2022-09-01T02:27:10;14.80;99.90
11399;DHT22;5755;48.116;11.608;2022-09-01T02:29:40;14.80;99.90
11399;DHT22;5755;48.116;11.608;2022-09-01T02:32:07;14.70;99.90
11399;DHT22;5755;48.116;11.608;2022-09-01T02:34:35;14.70;99.90
11399;DHT22;5755;48.116;11.608;2022-09-01T02:37:04;14.60;99.90
11399;DHT22;5755;48.116;11.608;2022-09-01T02:39:31;14.60;99.90
11399;DHT22;5755;48.116;11.608;2022-09-01T02:41:58;14.50;99.90
11399;DHT22;5755;48.116;11.608;2022-09-01T02:44:25;14.50;99.90
11399;DHT22;5755;48.116;11.608;2022-09-01T02:46:53;14.40;99.90
11399;DHT22;5755;48.116;11.608;2022-09-01T02:49:22;14.40;99.90
11399;DHT22;5755;48.116;11.608;2022-09-01T02:51:58;14.30;99.90
11399;DHT22;5755;48.116;11.608;2022-09-01T02:54:26;14.30;99.90
11399;DHT22;5755;48.116;11.608;2022-09-01T02:56:55;14.30;99.90
11399;DHT22;5755;48.116;11.608;2022-09-01T02:59:27;14.20;99.90
11399;DHT22;5755;48.116;11.608;2022-09-01T03:01:55;14.20;99.90
11399;DHT22;5755;48.116;11.608;2022-09-01T03:04:22;14.30;99.90
11399;DHT22;5755;48.116;11.608;2022-09-01T03:06:49;14.30;99.90
11399;DHT22;5755;48.116;11.608;2022-09-01T03:09:21;14.20;99.90
11399;DHT22;5755;48.116;11.608;2022-09-01T03:11:51;14.10;99.90
11399;DHT22;5755;48.116;11.608;2022-09-01T03:14:21;14.10;99.90
11399;DHT22;5755;48.116;11.608;2022-09-01T03:16:49;14.10;99.90
11399;DHT22;5755;48.116;11.608;2022-09-01T03:19:16;14.10;99.90
11399;DHT22;5755;48.116;11.608;2022-09-01T03:21:45;14.10;99.90
11399;DHT22;5755;48.116;11.608;2022-09-01T03:24:15;14.20;99.90
11399;DHT22;5755;48.116;11.608;2022-09-01T03:26:44;14.30;99.90
11399;DHT22;5755;48.116;11.608;2022-09-01T03:29:12;14.40;99.90
11399;DHT22;5755;48.116;11.608;2022-09-01T03:31:39;14.30;99.90
11399;DHT22;5755;48.116;11.608;2022-09-01T03:34:07;14.40;99.90
11399;DHT22;5755;48.116;11.608;2022-09-01T03:36:35;14.30;99.90
11399;DHT22;5755;48.116;11.608;2022-09-01T03:39:03;14.20;99.90
11399;DHT22;5755;48.116;11.608;2022-09-01T03:41:30;14.20;99.90
11399;DHT22;5755;48.116;11.608;2022-09-01T03:43:58;14.20;99.90
11399;DHT22;5755;48.116;11.608;2022-09-01T03:46:26;14.20;99.90
11399;DHT22;5755;48.116;11.608;2022-09-01T03:48:57;14.30;99.90
11399;DHT22;5755;48.116;11.608;2022-09-01T03:51:26;14.30;99.90
11399;DHT22;5755;48.116;11.608;2022-09-01T03:53:55;14.20;99.90
11399;DHT22;5755;48.116;11.608;2022-09-01T03:56:24;14.20;99.90
11399;DHT22;5755;48.116;11.608;2022-09-01T03:58:52;14.30;99.90
11399;DHT22;5755;48.116;11.608;2022-09-01T04:01:22;14.30;99.90
11399;DHT22;5755;48.116;11.608;2022-09-01T04:03:49;14.20;99.90
11399;DHT22;5755;48.116;11.608;2022-09-01T04:06:18;14.20;99.90
11399;DHT22;5755;48.116;11.608;2022-09-01T04:08:48;14.20;99.90
11399;DHT22;5755;48.116;11.608;2022-09-01T04:11:18;14.10;99.90
11399;DHT22;5755;48.116;11.608;2022-09-01T04:13:48;14.20;99.90
11399;DHT22;5755;48.116;11.608;2022-09-01T04:16:19;14.30;99.90
11399;DHT22;5755;48.116;11.608;2022-09-01T04:19:05;14.30;99.90
11399;DHT22;5755;48.116;11.608;2022-09-01T04:21:41;14.30;99.90
11399;DHT22;5755;48.116;11.608;2022-09-01T04:24:08;14.10;99.90
11399;DHT22;5755;48.116;11.608;2022-09-01T04:26:36;14.20;99.90
11399;DHT22;5755;48.116;11.608;2022-09-01T04:29:06;14.20;99.90
11399;DHT22;5755;48.116;11.608;2022-09-01T04:31:35;14.10;99.90
11399;DHT22;5755;48.116;11.608;2022-09-01T04:34:06;14.10;99.90
11399;DHT22;5755;48.116;11.608;2022-09-01T04:36:39;14.00;99.90
11399;DHT22;5755;48.116;11.608;2022-09-01T04:39:07;13.90;99.90
11399;DHT22;5755;48.116;11.608;2022-09-01T04:41:36;13.80;99.90
11399;DHT22;5755;48.116;11.608;2022-09-01T04:44:05;13.70;99.90
11399;DHT22;5755;48.116;11.608;2022-09-01T04:46:39;13.70;99.90
11399;DHT22;5755;48.116;11.608;2022-09-01T04:49:13;13.80;99.90
11399;DHT22;5755;48.116;11.608;2022-09-01T04:51:46;13.80;99.90
11399;DHT22;5755;48.116;11.608;2022-09-01T04:54:14;13.90;99.90
11399;DHT22;5755;48.116;11.608;2022-09-01T04:56:43;13.90;99.90
11399;DHT22;5755;48.116;11.608;2022-09-01T04:59:11;13.90;99.90
11399;DHT22;5755;48.116;11.608;2022-09-01T05:01:39;14.00;99.90
11399;DHT22;5755;48.116;11.608;2022-09-01T05:04:12;14.20;99.90
11399;DHT22;5755;48.116;11.608;2022-09-01T05:06:42;14.30;99.90
11399;DHT22;5755;48.116;11.608;2022-09-01T05:09:10;14.30;99.90
11399;DHT22;5755;48.116;11.608;2022-09-01T05:11:37;14.30;99.90
11399;DHT22;5755;48.116;11.608;2022-09-01T05:14:05;14.40;99.90
11399;DHT22;5755;48.116;11.608;2022-09-01T05:16:33;14.60;99.90
11399;DHT22;5755;48.116;11.608;2022-09-01T05:19:02;15.00;99.90
11399;DHT22;5755;48.116;11.608;2022-09-01T05:21:31;15.60;99.90
11399;DHT22;5755;48.116;11.608;2022-09-01T05:23:59;15.70;99.90
11399;DHT22;5755;48.116;11.608;2022-09-01T05:26:30;16.00;99.90
11399;DHT22;5755;48.116;11.608;2022-09-01T05:29:00;16.00;98.90
11399;DHT22;5755;48.116;11.608;2022-09-01T05:31:28;15.90;97.80
11399;DHT22;5755;48.116;11.608;2022-09-01T05:34:02;15.50;98.10
11399;DHT22;5755;48.116;11.608;2022-09-01T05:36:31;15.30;99.10
11399;DHT22;5755;48.116;11.608;2022-09-01T05:38:58;15.30;99.40
11399;DHT22;5755;48.116;11.608;2022-09-01T05:41:26;15.30;99.00
11399;DHT22;5755;48.116;11.608;2022-09-01T05:43:58;15.30;99.90
11399;DHT22;5755;48.116;11.608;2022-09-01T05:46:33;15.20;99.30
11399;DHT22;5755;48.116;11.608;2022-09-01T05:49:01;15.50;99.00
11399;DHT22;5755;48.116;11.608;2022-09-01T05:51:30;15.50;98.40
11399;DHT22;5755;48.116;11.608;2022-09-01T05:54:00;15.50;98.10
11399;DHT22;5755;48.116;11.608;2022-09-01T05:56:29;15.50;98.40
11399;DHT22;5755;48.116;11.608;2022-09-01T05:58:59;15.50;96.70
11399;DHT22;5755;48.116;11.608;2022-09-01T06:01:28;15.30;97.00
11399;DHT22;5755;48.116;11.608;2022-09-01T06:03:59;15.40;97.40
11399;DHT22;5755;48.116;11.608;2022-09-01T06:06:34;15.70;97.10
11399;DHT22;5755;48.116;11.608;2022-09-01T06:09:02;15.90;97.30
11399;DHT22;5755;48.116;11.608;2022-09-01T06:11:29;16.00;96.30
11399;DHT22;5755;48.116;11.608;2022-09-01T06:13:57;16.20;96.80
11399;DHT22;5755;48.116;11.608;2022-09-01T06:16:25;16.20;95.40
11399;DHT22;5755;48.116;11.608;2022-09-01T06:18:53;16.20;95.50
11399;DHT22;5755;48.116;11.608;2022-09-01T06:21:22;16.20;94.90
11399;DHT22;5755;48.116;11.608;2022-09-01T06:23:51;16.20;95.10
11399;DHT22;5755;48.116;11.608;2022-09-01T06:26:21;16.40;95.50
11399;DHT22;5755;48.116;11.608;2022-09-01T06:28:57;16.50;95.00
11399;DHT22;5755;48.116;11.608;2022-09-01T06:31:27;16.40;94.50
11399;DHT22;5755;48.116;11.608;2022-09-01T06:34:00;16.30;94.90
11399;DHT22;5755;48.116;11.608;2022-09-01T06:36:29;16.40;96.00
11399;DHT22;5755;48.116;11.608;2022-09-01T06:39:03;16.60;94.50
11399;DHT22;5755;48.116;11.608;2022-09-01T06:41:36;16.50;94.80
11399;DHT22;5755;48.116;11.608;2022-09-01T06:44:04;16.60;93.70
11399;DHT22;5755;48.116;11.608;2022-09-01T06:46:33;16.70;93.50
11399;DHT22;5755;48.116;11.608;2022-09-01T06:49:03;16.70;94.10
11399;DHT22;5755;48.116;11.608;2022-09-01T06:51:30;16.70;93.40
11399;DHT22;5755;48.116;11.608;2022-09-01T06:53:58;16.60;93.50
11399;DHT22;5755;48.116;11.608;2022-09-01T06:56:35;16.60;93.70
11399;DHT22;5755;48.116;11.608;2022-09-01T06:59:02;16.10;94.30
11399;DHT22;5755;48.116;11.608;2022-09-01T07:01:31;16.30;94.10
11399;DHT22;5755;48.116;11.608;2022-09-01T07:03:59;16.20;94.50
11399;DHT22;5755;48.116;11.608;2022-09-01T07:06:27;16.40;95.10
11399;DHT22;5755;48.116;11.608;2022-09-01T07:08:58;16.60;93.50
11399;DHT22;5755;48.116;11.608;2022-09-01T07:11:45;16.60;93.40
11399;DHT22;5755;48.116;11.608;2022-09-01T07:14:15;16.60;93.30
11399;DHT22;5755;48.116;11.608;2022-09-01T07:16:46;16.50;93.10
11399;DHT22;5755;48.116;11.608;2022-09-01T07:19:22;16.50;93.90
11399;DHT22;5755;48.116;11.608;2022-09-01T07:21:51;16.40;93.80
11399;DHT22;5755;48.116;11.608;2022-09-01T07:24:20;16.60;93.60
11399;DHT22;5755;48.116;11.608;2022-09-01T07:26:49;16.50;93.20
11399;DHT22;5755;48.116;11.608;2022-09-01T07:29:21;16.50;92.70
11399;DHT22;5755;48.116;11.608;2022-09-01T07:31:51;16.60;92.30
11399;DHT22;5755;48.116;11.608;2022-09-01T07:34:20;16.90;92.00
11399;DHT22;5755;48.116;11.608;2022-09-01T07:36:50;16.90;91.90
11399;DHT22;5755;48.116;11.608;2022-09-01T07:39:25;16.90;91.80
11399;DHT22;5755;48.116;11.608;2022-09-01T07:42:09;17.10;92.00
11399;DHT22;5755;48.116;11.608;2022-09-01T07:44:37;17.10;91.30
11399;DHT22;5755;48.116;11.608;2022-09-01T07:47:04;17.10;92.00
11399;DHT22;5755;48.116;11.608;2022-09-01T07:49:38;17.10;92.00
11399;DHT22;5755;48.116;11.608;2022-09-01T07:52:06;17.10;90.90
11399;DHT22;5755;48.116;11.608;2022-09-01T07:54:32;17.10;90.70
11399;DHT22;5755;48.116;11.608;2022-09-01T07:57:02;17.10;91.10
11399;DHT22;5755;48.116;11.608;2022-09-01T07:59:33;17.20;90.50
11399;DHT22;5755;48.116;11.608;2022-09-01T08:02:00;17.30;90.80
11399;DHT22;5755;48.116;11.608;2022-09-01T08:04:31;17.40;90.90
11399;DHT22;5755;48.116;11.608;2022-09-01T08:06:58;17.60;89.00
11399;DHT22;5755;48.116;11.608;2022-09-01T08:09:34;17.90;85.50
11399;DHT22;5755;48.116;11.608;2022-09-01T08:12:01;18.10;87.50
11399;DHT22;5755;48.116;11.608;2022-09-01T08:14:29;18.40;86.70
11399;DHT22;5755;48.116;11.608;2022-09-01T08:16:58;18.50;79.80
11399;DHT22;5755;48.116;11.608;2022-09-01T08:19:34;18.60;79.80
11399;DHT22;5755;48.116;11.608;2022-09-01T08:22:06;18.80;77.90
11399;DHT22;5755;48.116;11.608;2022-09-01T08:24:38;18.70;79.90
11399;DHT22;5755;48.116;11.608;2022-09-01T08:27:05;18.70;76.60
11399;DHT22;5755;48.116;11.608;2022-09-01T08:29:37;18.80;75.90
11399;DHT22;5755;48.116;11.608;2022-09-01T08:32:06;18.90;75.60
11399;DHT22;5755;48.116;11.608;2022-09-01T08:34:33;18.90;73.70
11399;DHT22;5755;48.116;11.608;2022-09-01T08:37:08;18.90;75.60
11399;DHT22;5755;48.116;11.608;2022-09-01T08:39:35;19.00;68.70
11399;DHT22;5755;48.116;11.608;2022-09-01T08:42:06;19.10;69.00
11399;DHT22;5755;48.116;11.608;2022-09-01T08:44:40;19.00;71.40
11399;DHT22;5755;48.116;11.608;2022-09-01T08:47:15;19.00;70.50
11399;DHT22;5755;48.116;11.608;2022-09-01T08:49:44;19.10;68.70
11399;DHT22;5755;48.116;11.608;2022-09-01T08:52:18;19.00;72.80
11399;DHT22;5755;48.116;11.608;2022-09-01T08:54:49;19.20;69.00
11399;DHT22;5755;48.116;11.608;2022-09-01T08:57:19;18.90;72.00
11399;DHT22;5755;48.116;11.608;2022-09-01T08:59:47;19.20;68.90
11399;DHT22;5755;48.116;11.608;2022-09-01T09:02:30;19.30;68.90
11399;DHT22;5755;48.116;11.608;2022-09-01T09:05:05;19.40;69.30
11399;DHT22;5755;48.116;11.608;2022-09-01T09:07:44;19.70;64.50
11399;DHT22;5755;48.116;11.608;2022-09-01T09:10:17;19.90;60.10
11399;DHT22;5755;48.116;11.608;2022-09-01T09:12:54;20.00;55.90
11399;DHT22;5755;48.116;11.608;2022-09-01T09:15:32;20.20;54.40
11399;DHT22;5755;48.116;11.608;2022-09-01T09:18:14;20.10;56.00
11399;DHT22;5755;48.116;11.608;2022-09-01T09:20:45;20.20;56.10
11399;DHT22;5755;48.116;11.608;2022-09-01T09:23:20;20.50;53.00
11399;DHT22;5755;48.116;11.608;2022-09-01T09:25:49;20.60;47.70
11399;DHT22;5755;48.116;11.608;2022-09-01T09:28:31;20.90;47.10
11399;DHT22;5755;48.116;11.608;2022-09-01T09:31:27;21.00;46.60
11399;DHT22;5755;48.116;11.608;2022-09-01T09:33:56;21.20;43.20
11399;DHT22;5755;48.116;11.608;2022-09-01T09:36:36;21.20;42.50
11399;DHT22;5755;48.116;11.608;2022-09-01T09:42:12;20.70;42.60
11399;DHT22;5755;48.116;11.608;2022-09-01T09:44:49;20.70;40.60
11399;DHT22;5755;48.116;11.608;2022-09-01T09:47:49;20.60;43.80
11399;DHT22;5755;48.116;11.608;2022-09-01T09:50:22;20.30;47.60
11399;DHT22;5755;48.116;11.608;2022-09-01T09:52:51;20.60;45.00
11399;DHT22;5755;48.116;11.608;2022-09-01T09:55:26;20.80;41.70
11399;DHT22;5755;48.116;11.608;2022-09-01T09:57:56;20.80;42.30
11399;DHT22;5755;48.116;11.608;2022-09-01T10:00:25;21.00;39.30
11399;DHT22;5755;48.116;11.608;2022-09-01T10:02:58;21.40;36.50
11399;DHT22;5755;48.116;11.608;2022-09-01T10:05:35;22.50;31.30
11399;DHT22;5755;48.116;11.608;2022-09-01T10:08:03;23.30;28.70
11399;DHT22;5755;48.116;11.608;2022-09-01T10:10:36;24.70;24.20
11399;DHT22;5755;48.116;11.608;2022-09-01T10:13:08;25.70;21.10
11399;DHT22;5755;48.116;11.608;2022-09-01T10:15:35;26.60;18.50
11399;DHT22;5755;48.116;11.608;2022-09-01T10:18:05;26.30;19.20
11399;DHT22;5755;48.116;11.608;2022-09-01T10:20:50;25.80;19.70
11399;DHT22;5755;48.116;11.608;2022-09-01T10:23:19;25.80;18.10
11399;DHT22;5755;48.116;11.608;2022-09-01T10:25:47;25.00;20.80
11399;DHT22;5755;48.116;11.608;2022-09-01T10:28:17;24.20;21.90
11399;DHT22;5755;48.116;11.608;2022-09-01T10:30:51;24.10;22.40
11399;DHT22;5755;48.116;11.608;2022-09-01T10:33:21;24.50;23.00
11399;DHT22;5755;48.116;11.608;2022-09-01T10:35:51;24.80;21.10
11399;DHT22;5755;48.116;11.608;2022-09-01T10:38:20;24.50;25.60
11399;DHT22;5755;48.116;11.608;2022-09-01T10:40:49;24.60;24.10
11399;DHT22;5755;48.116;11.608;2022-09-01T10:43:37;24.70;21.20
11399;DHT22;5755;48.116;11.608;2022-09-01T10:52:56;23.50;24.40
11399;DHT22;5755;48.116;11.608;2022-09-01T10:55:45;24.20;22.00
11399;DHT22;5755;48.116;11.608;2022-09-01T10:58:34;24.80;21.90
11399;DHT22;5755;48.116;11.608;2022-09-01T11:01:04;25.30;20.70
11399;DHT22;5755;48.116;11.608;2022-09-01T11:09:36;25.50;18.30
11399;DHT22;5755;48.116;11.608;2022-09-01T11:15:31;24.20;21.70
11399;DHT22;5755;48.116;11.608;2022-09-01T11:18:00;23.80;23.40
11399;DHT22;5755;48.116;11.608;2022-09-01T11:21:12;23.60;23.20
11399;DHT22;5755;48.116;11.608;2022-09-01T11:23:40;23.70;22.90
11399;DHT22;5755;48.116;11.608;2022-09-01T11:26:45;23.20;22.90
11399;DHT22;5755;48.116;11.608;2022-09-01T11:32:14;22.90;24.50
11399;DHT22;5755;48.116;11.608;2022-09-01T11:34:41;22.60;25.00
11399;DHT22;5755;48.116;11.608;2022-09-01T11:37:13;22.20;26.50
11399;DHT22;5755;48.116;11.608;2022-09-01T11:39:52;21.80;26.10
11399;DHT22;5755;48.116;11.608;2022-09-01T11:42:26;21.60;28.70
11399;DHT22;5755;48.116;11.608;2022-09-01T11:45:01;21.40;26.40
11399;DHT22;5755;48.116;11.608;2022-09-01T11:48:02;21.40;26.60
11399;DHT22;5755;48.116;11.608;2022-09-01T11:50:33;21.10;29.00
11399;DHT22;5755;48.116;11.608;2022-09-01T11:53:11;21.00;32.90
11399;DHT22;5755;48.116;11.608;2022-09-01T11:56:14;21.00;28.50
11399;DHT22;5755;48.116;11.608;2022-09-01T11:58:45;21.00;29.20
11399;DHT22;5755;48.116;11.608;2022-09-01T12:01:16;21.30;27.30
11399;DHT22;5755;48.116;11.608;2022-09-01T12:03:44;21.60;26.50
11399;DHT22;5755;48.116;11.608;2022-09-01T12:06:20;21.80;27.70
11399;DHT22;5755;48.116;11.608;2022-09-01T12:08:55;21.90;26.40
11399;DHT22;5755;48.116;11.608;2022-09-01T12:11:24;22.00;25.40
11399;DHT22;5755;48.116;11.608;2022-09-01T12:13:58;22.20;25.90
11399;DHT22;5755;48.116;11.608;2022-09-01T12:16:27;22.20;26.80
11399;DHT22;5755;48.116;11.608;2022-09-01T12:18:57;22.20;24.20
11399;DHT22;5755;48.116;11.608;2022-09-01T12:21:27;22.10;26.90
11399;DHT22;5755;48.116;11.608;2022-09-01T12:24:10;22.20;26.40
11399;DHT22;5755;48.116;11.608;2022-09-01T12:26:38;22.20;23.20
11399;DHT22;5755;48.116;11.608;2022-09-01T12:29:06;21.90;25.10
11399;DHT22;5755;48.116;11.608;2022-09-01T12:31:39;21.80;26.00
11399;DHT22;5755;48.116;11.608;2022-09-01T12:34:23;21.80;26.20
11399;DHT22;5755;48.116;11.608;2022-09-01T12:37:02;21.50;26.80
11399;DHT22;5755;48.116;11.608;2022-09-01T12:39:33;21.50;28.30
11399;DHT22;5755;48.116;11.608;2022-09-01T12:42:11;21.50;28.30
11399;DHT22;5755;48.116;11.608;2022-09-01T12:44:53;21.60;28.30
11399;DHT22;5755;48.116;11.608;2022-09-01T12:47:45;21.90;27.60
11399;DHT22;5755;48.116;11.608;2022-09-01T12:50:42;22.50;26.70
11399;DHT22;5755;48.116;11.608;2022-09-01T12:53:22;22.50;23.70
11399;DHT22;5755;48.116;11.608;2022-09-01T12:56:18;22.50;25.00
11399;DHT22;5755;48.116;11.608;2022-09-01T12:58:50;22.50;25.10
11399;DHT22;5755;48.116;11.608;2022-09-01T13:01:31;22.50;25.10
11399;DHT22;5755;48.116;11.608;2022-09-01T13:04:14;22.40;25.20
11399;DHT22;5755;48.116;11.608;2022-09-01T13:06:44;22.50;24.50
11399;DHT22;5755;48.116;11.608;2022-09-01T13:09:10;22.50;23.90
11399;DHT22;5755;48.116;11.608;2022-09-01T13:11:38;22.40;24.70
11399;DHT22;5755;48.116;11.608;2022-09-01T13:14:06;22.20;25.40
11399;DHT22;5755;48.116;11.608;2022-09-01T13:16:39;21.90;25.60
11399;DHT22;5755;48.116;11.608;2022-09-01T13:19:31;21.80;28.00
11399;DHT22;5755;48.116;11.608;2022-09-01T13:21:58;21.70;26.70
11399;DHT22;5755;48.116;11.608;2022-09-01T13:24:25;21.80;28.80
11399;DHT22;5755;48.116;11.608;2022-09-01T13:26:52;21.90;27.70
11399;DHT22;5755;48.116;11.608;2022-09-01T13:29:22;22.10;26.90
11399;DHT22;5755;48.116;11.608;2022-09-01T13:31:50;22.00;25.30
11399;DHT22;5755;48.116;11.608;2022-09-01T13:34:17;21.80;25.70
11399;DHT22;5755;48.116;11.608;2022-09-01T13:36:44;21.60;27.20
11399;DHT22;5755;48.116;11.608;2022-09-01T13:39:14;21.40;27.70
11399;DHT22;5755;48.116;11.608;2022-09-01T13:41:40;21.30;27.00
11399;DHT22;5755;48.116;11.608;2022-09-01T13:44:07;21.10;28.60
11399;DHT22;5755;48.116;11.608;2022-09-01T13:46:36;21.10;27.50
11399;DHT22;5755;48.116;11.608;2022-09-01T13:49:04;21.30;27.40
11399;DHT22;5755;48.116;11.608;2022-09-01T13:51:31;21.60;27.30
11399;DHT22;5755;48.116;11.608;2022-09-01T13:53:59;21.60;26.40
11399;DHT22;5755;48.116;11.608;2022-09-01T13:56:26;21.70;25.10
11399;DHT22;5755;48.116;11.608;2022-09-01T13:58:53;21.70;26.70
11399;DHT22;5755;48.116;11.608;2022-09-01T14:01:20;21.90;25.40
11399;DHT22;5755;48.116;11.608;2022-09-01T14:03:47;21.90;26.10
11399;DHT22;5755;48.116;11.608;2022-09-01T14:06:16;21.80;25.80
11399;DHT22;5755;48.116;11.608;2022-09-01T14:08:43;21.60;27.40
11399;DHT22;5755;48.116;11.608;2022-09-01T14:11:15;21.50;27.60
11399;DHT22;5755;48.116;11.608;2022-09-01T14:13:43;21.20;29.50
11399;DHT22;5755;48.116;11.608;2022-09-01T14:16:11;21.20;29.00
11399;DHT22;5755;48.116;11.608;2022-09-01T14:18:39;21.30;29.30
11399;DHT22;5755;48.116;11.608;2022-09-01T14:21:10;21.40;28.10
11399;DHT22;5755;48.116;11.608;2022-09-01T14:23:45;21.40;27.60
11399;DHT22;5755;48.116;11.608;2022-09-01T14:26:14;21.40;29.30
11399;DHT22;5755;48.116;11.608;2022-09-01T14:28:45;21.40;27.40
11399;DHT22;5755;48.116;11.608;2022-09-01T14:31:14;21.40;28.00
11399;DHT22;5755;48.116;11.608;2022-09-01T14:33:56;21.40;27.80
11399;DHT22;5755;48.116;11.608;2022-09-01T14:36:32;21.40;27.70
11399;DHT22;5755;48.116;11.608;2022-09-01T14:39:04;21.30;29.00
11399;DHT22;5755;48.116;11.608;2022-09-01T14:41:31;21.20;28.10
11399;DHT22;5755;48.116;11.608;2022-09-01T14:44:02;21.10;28.20
11399;DHT22;5755;48.116;11.608;2022-09-01T14:46:29;21.10;27.90
11399;DHT22;5755;48.116;11.608;2022-09-01T14:49:02;21.30;26.10
11399;DHT22;5755;48.116;11.608;2022-09-01T14:51:30;21.20;24.50
11399;DHT22;5755;48.116;11.608;2022-09-01T14:54:05;21.20;25.30
11399;DHT22;5755;48.116;11.608;2022-09-01T14:56:38;21.10;23.50
11399;DHT22;5755;48.116;11.608;2022-09-01T14:59:05;21.10;23.10
11399;DHT22;5755;48.116;11.608;2022-09-01T15:01:35;21.00;21.90
11399;DHT22;5755;48.116;11.608;2022-09-01T15:04:02;21.00;22.20
11399;DHT22;5755;48.116;11.608;2022-09-01T15:06:29;20.90;22.60
11399;DHT22;5755;48.116;11.608;2022-09-01T15:08:56;21.00;20.40
11399;DHT22;5755;48.116;11.608;2022-09-01T15:11:25;20.90;21.00
11399;DHT22;5755;48.116;11.608;2022-09-01T15:13:56;20.80;21.50
11399;DHT22;5755;48.116;11.608;2022-09-01T15:16:24;20.90;21.60
11399;DHT22;5755;48.116;11.608;2022-09-01T15:18:52;20.80;22.30
11399;DHT22;5755;48.116;11.608;2022-09-01T15:21:22;20.80;23.50
11399;DHT22;5755;48.116;11.608;2022-09-01T15:23:50;20.80;25.60
11399;DHT22;5755;48.116;11.608;2022-09-01T15:26:18;20.80;24.80
11399;DHT22;5755;48.116;11.608;2022-09-01T15:28:48;20.80;25.00
11399;DHT22;5755;48.116;11.608;2022-09-01T15:31:20;20.80;26.30
11399;DHT22;5755;48.116;11.608;2022-09-01T15:33:50;20.90;24.40
11399;DHT22;5755;48.116;11.608;2022-09-01T15:36:19;21.00;24.00
11399;DHT22;5755;48.116;11.608;2022-09-01T15:38:47;20.90;24.20
11399;DHT22;5755;48.116;11.608;2022-09-01T15:41:15;21.00;26.10
11399;DHT22;5755;48.116;11.608;2022-09-01T15:43:58;21.00;25.00
11399;DHT22;5755;48.116;11.608;2022-09-01T15:46:25;21.00;23.70
11399;DHT22;5755;48.116;11.608;2022-09-01T15:49:09;20.90;23.80
11399;DHT22;5755;48.116;11.608;2022-09-01T15:51:55;20.80;22.90
11399;DHT22;5755;48.116;11.608;2022-09-01T15:54:22;20.80;22.60
11399;DHT22;5755;48.116;11.608;2022-09-01T15:56:51;20.50;23.60
11399;DHT22;5755;48.116;11.608;2022-09-01T15:59:20;20.30;23.20
11399;DHT22;5755;48.116;11.608;2022-09-01T16:01:47;20.00;23.80
11399;DHT22;5755;48.116;11.608;2022-09-01T16:04:17;19.80;25.00
11399;DHT22;5755;48.116;11.608;2022-09-01T16:06:44;19.60;25.70
11399;DHT22;5755;48.116;11.608;2022-09-01T16:09:11;19.60;24.70
11399;DHT22;5755;48.116;11.608;2022-09-01T16:11:38;19.70;25.30
11399;DHT22;5755;48.116;11.608;2022-09-01T16:14:06;19.70;25.00
11399;DHT22;5755;48.116;11.608;2022-09-01T16:16:40;19.90;24.70
11399;DHT22;5755;48.116;11.608;2022-09-01T16:19:23;19.70;25.50